Time;durP1;ratioP1;P1;durP2;ratioP2;P2;SDS_P1;SDS_P2;PMS_P1;PMS_P2;Temp;Humidity;BMP_temperature;BMP_pressure;BME280_temperature;BME280_humidity;BME280_pressure;Samples;Min_cycle;Max_cycle;Signal;HPM_P1;HPM_P2
2022/11/28 00:00:39;;;;;;;0.50;0.50;;;1.20;99.90;;;;;;5098357;28;20291;-71
2022/11/28 00:03:05;;;;;;;0.70;0.70;;;1.20;99.90;;;;;;5116855;28;20282;-71
2022/11/28 00:05:31;;;;;;;0.70;0.70;;;1.30;99.90;;;;;;5116712;28;20230;-71
2022/11/28 00:07:56;;;;;;;0.40;0.40;;;1.20;99.90;;;;;;5117185;28;20200;-71
2022/11/28 00:10:22;;;;;;;0.60;0.60;;;1.30;99.90;;;;;;5116412;28;20307;-71
2022/11/28 00:12:48;;;;;;;0.60;0.60;;;1.30;99.90;;;;;;5098397;28;20302;-71
2022/11/28 00:15:13;;;;;;;0.70;0.70;;;1.30;99.90;;;;;;5098242;28;20215;-71
2022/11/28 00:17:39;;;;;;;0.50;0.50;;;1.30;99.90;;;;;;5116464;28;20199;-71
2022/11/28 00:20:06;;;;;;;0.60;0.60;;;1.30;99.90;;;;;;5098268;28;20199;-71
2022/11/28 00:22:31;;;;;;;0.50;0.50;;;1.30;99.90;;;;;;5116375;28;20317;-71
2022/11/28 00:24:57;;;;;;;0.60;0.60;;;1.30;99.90;;;;;;5116273;28;20326;-71
2022/11/28 00:27:23;;;;;;;0.60;0.60;;;1.30;99.90;;;;;;5116191;28;20562;-71
2022/11/28 00:29:48;;;;;;;0.60;0.60;;;1.30;99.90;;;;;;5116422;28;20268;-71
2022/11/28 00:32:14;;;;;;;2.38;1.13;;;1.30;99.90;;;;;;5116350;28;20209;-71
2022/11/28 00:34:40;;;;;;;0.60;0.60;;;1.30;99.90;;;;;;5115751;28;20200;-71
2022/11/28 00:37:05;;;;;;;0.60;0.60;;;1.30;99.90;;;;;;5116220;28;20192;-71
2022/11/28 00:39:31;;;;;;;2.33;1.45;;;1.30;99.90;;;;;;5116057;28;20191;-71
2022/11/28 00:41:56;;;;;;;0.60;0.60;;;1.30;99.90;;;;;;5097872;28;20294;-71
2022/11/28 00:44:22;;;;;;;0.50;0.50;;;1.30;99.90;;;;;;5115994;28;20203;-71
2022/11/28 00:46:48;;;;;;;0.60;0.60;;;1.40;99.90;;;;;;5116062;28;20184;-71
2022/11/28 00:49:13;;;;;;;0.52;0.52;;;1.40;99.90;;;;;;5115954;28;20187;-71
2022/11/28 00:51:39;;;;;;;0.55;0.55;;;1.40;99.90;;;;;;5115838;28;20187;-71
2022/11/28 00:54:05;;;;;;;0.50;0.50;;;1.30;99.90;;;;;;5097685;28;20249;-71
2022/11/28 00:56:34;;;;;;;0.60;0.60;;;1.30;99.90;;;;;;5097383;28;20203;-72
2022/11/28 00:59:00;;;;;;;0.77;0.77;;;1.30;99.90;;;;;;5115900;28;20187;-71
2022/11/28 01:01:34;;;;;;;0.50;0.50;;;1.30;99.90;;;;;;5115596;28;20670;-72
2022/11/28 01:04:02;;;;;;;0.60;0.60;;;1.40;99.90;;;;;;5097530;28;20248;-71
2022/11/28 01:06:31;;;;;;;0.70;0.70;;;1.40;99.90;;;;;;5114508;28;20191;-71
2022/11/28 01:09:00;;;;;;;0.60;0.60;;;1.40;99.90;;;;;;5097426;28;20702;-71
2022/11/28 01:11:26;;;;;;;0.63;0.63;;;1.40;99.90;;;;;;5096592;28;20242;-72
2022/11/28 01:13:56;;;;;;;0.60;0.60;;;1.40;99.90;;;;;;5097236;28;20207;-72
2022/11/28 01:16:22;;;;;;;0.60;0.60;;;1.40;99.90;;;;;;5115443;28;20192;-72
2022/11/28 01:18:48;;;;;;;0.70;0.70;;;1.40;99.90;;;;;;5115365;28;20202;-71
2022/11/28 01:21:14;;;;;;;0.63;0.63;;;1.50;99.90;;;;;;5115403;28;20248;-71
2022/11/28 01:23:39;;;;;;;0.70;0.70;;;1.50;99.90;;;;;;5106786;28;20536;-71
2022/11/28 01:26:07;;;;;;;0.60;0.60;;;1.50;99.90;;;;;;5094897;28;20202;-71
2022/11/28 01:28:34;;;;;;;2.05;0.80;;;1.50;99.90;;;;;;5096930;28;20277;-71
2022/11/28 01:31:07;;;;;;;0.60;0.60;;;1.50;99.90;;;;;;5096485;28;20714;-71
2022/11/28 01:33:33;;;;;;;0.85;0.85;;;1.60;99.90;;;;;;5115071;28;20195;-71
2022/11/28 01:35:59;;;;;;;0.50;0.50;;;1.50;99.90;;;;;;5115070;28;20192;-71
2022/11/28 01:38:25;;;;;;;0.95;0.95;;;1.50;99.90;;;;;;5096428;28;20214;-72
2022/11/28 01:40:51;;;;;;;0.60;0.60;;;1.50;99.90;;;;;;5115003;28;20245;-71
2022/11/28 01:43:18;;;;;;;0.50;0.50;;;1.50;99.90;;;;;;5115086;28;20614;-71
2022/11/28 01:45:44;;;;;;;0.68;0.68;;;1.50;99.90;;;;;;5096898;28;20661;-72
2022/11/28 01:48:14;;;;;;;0.60;0.60;;;1.50;99.90;;;;;;5114903;28;20642;-71
2022/11/28 01:50:42;;;;;;;1.38;1.27;;;1.50;99.90;;;;;;5100134;28;20777;-71
2022/11/28 01:53:09;;;;;;;1.42;1.10;;;1.50;99.90;;;;;;5094346;28;20266;-71
2022/11/28 01:55:41;;;;;;;0.55;0.55;;;1.50;99.90;;;;;;5094237;28;20540;-70
2022/11/28 01:58:08;;;;;;;0.50;0.50;;;1.60;99.90;;;;;;5094262;28;20197;-71
2022/11/28 02:00:34;;;;;;;0.50;0.50;;;1.50;99.90;;;;;;5076164;28;20192;-72
2022/11/28 02:03:09;;;;;;;0.80;0.80;;;1.60;99.90;;;;;;5094176;28;20697;-72
2022/11/28 02:05:35;;;;;;;0.68;0.68;;;1.60;99.90;;;;;;5094046;28;20283;-72
2022/11/28 02:08:02;;;;;;;0.80;0.80;;;1.60;99.90;;;;;;5113198;28;20196;-72
2022/11/28 02:10:53;;;;;;;0.70;0.70;;;1.60;99.90;;;;;;5113997;28;20223;-73
2022/11/28 02:13:57;;;;;;;0.63;0.63;;;1.60;99.90;;;;;;5114276;28;20198;-73
2022/11/28 02:16:50;;;;;;;0.80;0.80;;;1.60;99.90;;;;;;5095696;28;20290;-73
2022/11/28 02:19:36;;;;;;;0.77;0.77;;;1.60;99.90;;;;;;5114277;28;20718;-72
2022/11/28 02:22:30;;;;;;;0.70;0.70;;;1.60;99.90;;;;;;5095795;28;20716;-73
2022/11/28 02:25:21;;;;;;;0.60;0.60;;;1.70;99.90;;;;;;5113870;28;20188;-73
2022/11/28 02:28:28;;;;;;;1.10;1.05;;;1.70;99.90;;;;;;5095433;28;20619;-73
2022/11/28 02:31:24;;;;;;;0.60;0.60;;;1.70;99.90;;;;;;5095890;28;20300;-73
2022/11/28 02:33:59;;;;;;;0.60;0.60;;;1.70;99.90;;;;;;5113982;28;20707;-73
2022/11/28 02:36:34;;;;;;;0.70;0.70;;;1.70;99.90;;;;;;5113815;28;20191;-73
2022/11/28 02:39:40;;;;;;;0.60;0.60;;;1.80;99.90;;;;;;5113768;28;20191;-73
2022/11/28 02:42:22;;;;;;;0.80;0.80;;;1.80;99.90;;;;;;5113521;28;20187;-73
2022/11/28 02:45:05;;;;;;;0.70;0.70;;;1.80;99.90;;;;;;5113282;28;20713;-73
2022/11/28 02:47:47;;;;;;;0.60;0.60;;;1.70;99.90;;;;;;5113215;28;20194;-73
2022/11/28 02:50:29;;;;;;;0.70;0.70;;;1.80;99.90;;;;;;5113605;28;20669;-73
2022/11/28 02:53:12;;;;;;;0.57;0.57;;;1.80;99.90;;;;;;5095385;28;20199;-72
2022/11/28 02:55:40;;;;;;;0.40;0.40;;;1.80;99.90;;;;;;5113517;28;20191;-72
2022/11/28 02:58:06;;;;;;;0.50;0.50;;;1.80;99.90;;;;;;5095309;28;20192;-73
2022/11/28 03:00:37;;;;;;;0.52;0.52;;;1.80;99.90;;;;;;5113437;28;20625;-73
2022/11/28 03:03:26;;;;;;;0.55;0.55;;;1.80;99.90;;;;;;5095135;28;20662;-72
2022/11/28 03:06:07;;;;;;;0.70;0.70;;;1.80;99.90;;;;;;5113797;28;20188;-72
2022/11/28 03:08:57;;;;;;;0.70;0.70;;;1.90;99.90;;;;;;5113882;28;20242;-72
2022/11/28 03:12:00;;;;;;;0.60;0.60;;;1.90;99.90;;;;;;5113361;28;20304;-72
2022/11/28 03:14:35;;;;;;;0.60;0.60;;;1.90;99.90;;;;;;5113357;28;20190;-73
2022/11/28 03:17:12;;;;;;;0.70;0.70;;;1.90;99.90;;;;;;5095355;28;20195;-73
2022/11/28 03:19:42;;;;;;;0.60;0.60;;;1.90;99.90;;;;;;5113542;28;20711;-72
2022/11/28 03:22:20;;;;;;;0.52;0.52;;;1.90;99.90;;;;;;5113243;28;20226;-72
2022/11/28 03:25:20;;;;;;;1.08;1.02;;;1.90;99.90;;;;;;5112609;28;20289;-72
2022/11/28 03:28:03;;;;;;;0.50;0.50;;;1.90;99.90;;;;;;5061290;28;20219;-73
2022/11/28 03:30:35;;;;;;;0.50;0.50;;;1.90;99.90;;;;;;5112327;28;20240;-72
2022/11/28 03:33:02;;;;;;;0.50;0.50;;;1.90;99.90;;;;;;5094872;28;20333;-72
2022/11/28 03:35:33;;;;;;;0.60;0.60;;;2.00;99.90;;;;;;5112915;28;20204;-72
2022/11/28 03:38:05;;;;;;;0.50;0.50;;;1.90;99.90;;;;;;5113016;28;20191;-72
2022/11/28 03:40:42;;;;;;;0.60;0.60;;;2.00;99.90;;;;;;5112841;28;20565;-72
2022/11/28 03:43:14;;;;;;;1.23;1.10;;;2.00;99.90;;;;;;5112929;28;20191;-72
2022/11/28 03:45:45;;;;;;;0.50;0.50;;;2.00;99.90;;;;;;5094498;28;20234;-72
2022/11/28 03:48:22;;;;;;;0.50;0.50;;;2.00;99.90;;;;;;5094736;28;20195;-72
2022/11/28 03:50:57;;;;;;;0.70;0.70;;;2.00;99.90;;;;;;5112872;28;20210;-73
2022/11/28 03:53:54;;;;;;;0.63;0.63;;;2.00;99.90;;;;;;5112778;28;20194;-72
2022/11/28 03:56:43;;;;;;;1.75;1.00;;;2.00;99.90;;;;;;5090751;28;20572;-72
2022/11/28 03:59:29;;;;;;;0.60;0.60;;;2.00;99.90;;;;;;5112528;28;20562;-73
2022/11/28 04:02:04;;;;;;;0.57;0.57;;;2.00;99.90;;;;;;5103565;28;20196;-73
2022/11/28 04:04:57;;;;;;;0.50;0.50;;;2.10;99.90;;;;;;5076868;28;20662;-72
2022/11/28 04:07:47;;;;;;;0.60;0.60;;;2.20;99.90;;;;;;5045984;28;20697;-72
2022/11/28 04:10:12;;;;;;;1.35;1.25;;;2.20;99.90;;;;;;5092235;28;20691;-72
2022/11/28 04:12:44;;;;;;;0.60;0.60;;;2.20;99.90;;;;;;5092163;28;20188;-72
2022/11/28 04:15:37;;;;;;;0.50;0.50;;;2.20;99.90;;;;;;5092305;28;20184;-72
2022/11/28 04:18:03;;;;;;;0.50;0.50;;;2.20;99.90;;;;;;5074227;28;20695;-72
2022/11/28 04:20:45;;;;;;;0.60;0.60;;;2.10;99.90;;;;;;5091638;28;20261;-72
2022/11/28 04:23:15;;;;;;;0.60;0.60;;;2.10;99.90;;;;;;5087909;28;20199;-72
2022/11/28 04:25:48;;;;;;;0.43;0.43;;;2.10;99.90;;;;;;5071904;28;20717;-73
2022/11/28 04:28:19;;;;;;;0.47;0.47;;;2.10;99.90;;;;;;5072068;28;20232;-73
2022/11/28 04:30:48;;;;;;;0.63;0.63;;;2.20;99.90;;;;;;5071666;28;20205;-72
2022/11/28 04:33:17;;;;;;;0.50;0.50;;;2.20;99.90;;;;;;5071959;28;20295;-72
2022/11/28 04:35:48;;;;;;;0.60;0.60;;;2.20;99.90;;;;;;5071903;28;20192;-72
2022/11/28 04:38:15;;;;;;;1.05;0.95;;;2.20;99.90;;;;;;5072233;28;20717;-72
2022/11/28 04:40:53;;;;;;;0.50;0.50;;;2.20;99.90;;;;;;5071631;28;20193;-72
2022/11/28 04:43:34;;;;;;;0.68;0.68;;;2.30;99.90;;;;;;5056737;28;20196;-73
2022/11/28 04:46:06;;;;;;;0.60;0.60;;;2.20;99.90;;;;;;5075368;28;20188;-71
2022/11/28 04:48:32;;;;;;;0.60;0.60;;;2.30;99.90;;;;;;5075240;28;20231;-73
2022/11/28 04:51:08;;;;;;;0.70;0.70;;;2.30;99.90;;;;;;5075191;28;20672;-72
2022/11/28 04:53:42;;;;;;;0.70;0.70;;;2.40;99.90;;;;;;5075122;28;20266;-72
2022/11/28 04:56:17;;;;;;;0.70;0.70;;;2.40;99.90;;;;;;5088541;28;20191;-72
2022/11/28 04:58:46;;;;;;;1.67;1.48;;;2.30;99.90;;;;;;5095301;28;20215;-73
2022/11/28 05:01:26;;;;;;;0.60;0.60;;;2.30;99.90;;;;;;5095421;28;20218;-73
2022/11/28 05:03:53;;;;;;;0.50;0.50;;;2.30;99.90;;;;;;5095401;28;20669;-73
2022/11/28 05:06:31;;;;;;;0.63;0.63;;;2.30;99.90;;;;;;5095179;28;20275;-73
2022/11/28 05:08:57;;;;;;;0.55;0.55;;;2.30;99.90;;;;;;5095161;28;20698;-73
2022/11/28 05:11:23;;;;;;;0.60;0.60;;;2.30;99.90;;;;;;5095488;28;20238;-72
2022/11/28 05:13:49;;;;;;;0.50;0.50;;;2.30;99.90;;;;;;5115432;28;20270;-73
2022/11/28 05:16:15;;;;;;;1.35;1.25;;;2.40;99.90;;;;;;5096853;28;20336;-73
2022/11/28 05:18:41;;;;;;;2.22;1.63;;;2.40;99.90;;;;;;5115162;28;20604;-73
2022/11/28 05:21:07;;;;;;;0.50;0.50;;;2.40;99.90;;;;;;5096954;28;20299;-73
2022/11/28 05:23:42;;;;;;;0.60;0.60;;;2.40;99.90;;;;;;5107494;28;20192;-73
2022/11/28 05:26:09;;;;;;;0.55;0.55;;;2.40;99.90;;;;;;5076685;28;20204;-73
2022/11/28 05:28:35;;;;;;;0.60;0.60;;;2.50;99.90;;;;;;5094649;28;20203;-73
2022/11/28 05:31:02;;;;;;;1.13;1.02;;;2.50;99.90;;;;;;5094656;28;20208;-73
2022/11/28 05:33:29;;;;;;;0.70;0.70;;;2.40;99.90;;;;;;5093974;28;20188;-73
2022/11/28 05:35:55;;;;;;;0.50;0.50;;;2.40;99.90;;;;;;5094179;28;20241;-72
2022/11/28 05:38:21;;;;;;;0.70;0.70;;;2.40;99.90;;;;;;5094271;28;20188;-73
2022/11/28 05:40:47;;;;;;;0.60;0.60;;;2.40;99.90;;;;;;5094557;28;20214;-73
2022/11/28 05:43:13;;;;;;;1.35;1.25;;;2.40;99.90;;;;;;5094659;28;20638;-73
2022/11/28 05:45:40;;;;;;;0.55;0.55;;;2.40;99.90;;;;;;5094399;28;20279;-73
2022/11/28 05:48:06;;;;;;;1.15;0.93;;;2.40;99.90;;;;;;5094385;28;20195;-73
2022/11/28 05:50:32;;;;;;;1.27;1.02;;;2.50;99.90;;;;;;5094323;28;20582;-73
2022/11/28 05:52:57;;;;;;;0.50;0.50;;;2.50;99.90;;;;;;5112153;28;20556;-73
2022/11/28 05:55:23;;;;;;;0.60;0.60;;;2.40;99.90;;;;;;5114351;28;20264;-74
2022/11/28 05:57:49;;;;;;;1.92;1.75;;;2.40;99.90;;;;;;5114688;28;20596;-72
2022/11/28 06:00:15;;;;;;;0.88;0.88;;;2.40;99.90;;;;;;5096130;28;20298;-73
2022/11/28 06:02:41;;;;;;;0.55;0.55;;;2.50;99.90;;;;;;5096016;28;20282;-74
2022/11/28 06:05:07;;;;;;;0.60;0.60;;;2.50;99.90;;;;;;5114266;28;20668;-74
2022/11/28 06:07:32;;;;;;;0.50;0.50;;;2.50;99.90;;;;;;5114550;28;20200;-74
2022/11/28 06:09:58;;;;;;;0.60;0.60;;;2.50;99.90;;;;;;5110267;28;20729;-74
2022/11/28 06:12:24;;;;;;;0.50;0.50;;;2.50;99.90;;;;;;5093533;28;20218;-73
2022/11/28 06:14:49;;;;;;;0.50;0.50;;;2.60;99.90;;;;;;5093965;28;20629;-74
2022/11/28 06:17:15;;;;;;;0.65;0.65;;;2.60;99.90;;;;;;5075766;28;20200;-74
2022/11/28 06:19:40;;;;;;;0.57;0.57;;;2.50;99.90;;;;;;5093746;28;20586;-73
2022/11/28 06:22:06;;;;;;;1.15;1.15;;;2.50;99.90;;;;;;5093704;28;20196;-74
2022/11/28 06:24:32;;;;;;;0.80;0.80;;;2.50;99.90;;;;;;5077880;28;20247;-73
2022/11/28 06:26:57;;;;;;;0.50;0.50;;;2.50;99.90;;;;;;5073432;28;20188;-74
2022/11/28 06:29:23;;;;;;;0.50;0.50;;;2.60;99.90;;;;;;5073319;28;20250;-73
2022/11/28 06:31:49;;;;;;;0.60;0.60;;;2.60;99.90;;;;;;5073440;28;20185;-74
2022/11/28 06:34:15;;;;;;;0.80;0.80;;;2.60;99.90;;;;;;5072196;28;20232;-74
2022/11/28 06:36:41;;;;;;;0.70;0.70;;;2.50;99.90;;;;;;5073080;28;20196;-74
2022/11/28 06:39:08;;;;;;;1.10;1.10;;;2.50;99.90;;;;;;5073239;28;20197;-74
2022/11/28 06:41:34;;;;;;;0.50;0.50;;;2.50;99.90;;;;;;5072902;28;20246;-74
2022/11/28 06:44:00;;;;;;;0.70;0.70;;;2.50;99.90;;;;;;5071985;28;20205;-74
2022/11/28 06:46:25;;;;;;;0.60;0.60;;;2.50;99.90;;;;;;5055034;28;20330;-75
2022/11/28 06:48:52;;;;;;;0.63;0.63;;;2.50;99.90;;;;;;5088335;28;20603;-74
2022/11/28 06:51:19;;;;;;;0.60;0.60;;;2.60;99.90;;;;;;5093405;28;20249;-74
2022/11/28 06:53:44;;;;;;;0.70;0.70;;;2.60;99.90;;;;;;5075014;28;20203;-74
2022/11/28 06:56:16;;;;;;;0.50;0.50;;;2.60;99.90;;;;;;5093355;28;20196;-74
2022/11/28 06:58:42;;;;;;;0.60;0.60;;;2.60;99.90;;;;;;5074728;28;20235;-73
2022/11/28 07:01:17;;;;;;;0.60;0.60;;;2.60;99.90;;;;;;5074994;28;20248;-74
2022/11/28 07:03:43;;;;;;;0.68;0.68;;;2.60;99.90;;;;;;5092843;28;20535;-74
2022/11/28 07:06:10;;;;;;;0.73;0.73;;;2.60;99.90;;;;;;5092573;28;20208;-74
2022/11/28 07:08:36;;;;;;;0.73;0.73;;;2.60;99.90;;;;;;5092495;28;20272;-74
2022/11/28 07:11:10;;;;;;;0.50;0.50;;;2.60;99.90;;;;;;5108991;28;20231;-74
2022/11/28 07:13:37;;;;;;;0.60;0.60;;;2.70;99.90;;;;;;5113294;28;20233;-74
2022/11/28 07:16:03;;;;;;;0.65;0.65;;;2.70;99.90;;;;;;5095047;28;20662;-74
2022/11/28 07:18:29;;;;;;;0.55;0.55;;;2.70;99.90;;;;;;5113101;28;20198;-74
2022/11/28 07:20:54;;;;;;;0.52;0.52;;;2.70;99.90;;;;;;5094649;28;20666;-74
2022/11/28 07:23:20;;;;;;;0.60;0.60;;;2.70;99.90;;;;;;5106920;28;20200;-74
2022/11/28 07:25:46;;;;;;;0.70;0.70;;;2.70;99.90;;;;;;5092563;28;20191;-73
2022/11/28 07:28:11;;;;;;;0.55;0.55;;;2.70;99.90;;;;;;5092721;28;20670;-75
2022/11/28 07:30:37;;;;;;;0.50;0.50;;;2.70;99.90;;;;;;5092436;28;20215;-74
2022/11/28 07:33:02;;;;;;;0.70;0.70;;;2.70;99.90;;;;;;5092744;28;20215;-74
2022/11/28 07:35:28;;;;;;;0.85;0.85;;;2.70;99.90;;;;;;5092603;28;20241;-74
2022/11/28 07:37:54;;;;;;;0.90;0.90;;;2.80;99.90;;;;;;5092496;28;20196;-74
2022/11/28 07:40:21;;;;;;;0.40;0.40;;;2.80;99.90;;;;;;5092535;28;20192;-74
2022/11/28 07:42:47;;;;;;;0.50;0.50;;;2.80;99.90;;;;;;5092653;28;20274;-74
2022/11/28 07:45:13;;;;;;;0.50;0.50;;;2.80;99.90;;;;;;5090533;28;20220;-74
2022/11/28 07:47:39;;;;;;;0.70;0.70;;;2.80;99.90;;;;;;5112753;28;20227;-74
2022/11/28 07:50:05;;;;;;;0.70;0.70;;;2.90;99.90;;;;;;5112914;28;20202;-74
2022/11/28 07:52:31;;;;;;;0.60;0.60;;;2.80;99.90;;;;;;5112687;28;20215;-73
2022/11/28 07:54:56;;;;;;;0.65;0.65;;;2.90;99.90;;;;;;5112999;28;20199;-74
2022/11/28 07:57:22;;;;;;;0.60;0.60;;;2.90;99.90;;;;;;5112761;28;20188;-75
2022/11/28 07:59:48;;;;;;;0.50;0.50;;;2.90;99.90;;;;;;5112805;28;20557;-74
2022/11/28 08:02:13;;;;;;;0.60;0.60;;;2.90;99.90;;;;;;5112819;28;20370;-74
2022/11/28 08:04:39;;;;;;;0.50;0.50;;;2.90;99.90;;;;;;5112234;28;20214;-75
2022/11/28 08:07:05;;;;;;;0.60;0.60;;;2.90;99.90;;;;;;5112810;28;20195;-73
2022/11/28 08:09:31;;;;;;;0.70;0.70;;;2.90;99.90;;;;;;5112570;28;20276;-73
2022/11/28 08:11:56;;;;;;;0.60;0.60;;;2.90;99.90;;;;;;5094406;28;20563;-74
2022/11/28 08:14:22;;;;;;;0.60;0.60;;;3.00;99.90;;;;;;5094341;28;20202;-74
2022/11/28 08:16:48;;;;;;;0.60;0.60;;;3.00;99.90;;;;;;5115078;28;20233;-74
2022/11/28 08:19:14;;;;;;;0.60;0.60;;;3.00;99.90;;;;;;5116561;28;20192;-74
2022/11/28 08:21:40;;;;;;;0.60;0.60;;;2.90;99.90;;;;;;5116297;28;20286;-74
2022/11/28 08:24:06;;;;;;;0.60;0.60;;;3.00;99.90;;;;;;5104303;28;20697;-75
2022/11/28 08:26:33;;;;;;;0.60;0.60;;;3.00;99.90;;;;;;5095872;28;20647;-74
2022/11/28 08:28:59;;;;;;;0.63;0.63;;;3.00;99.90;;;;;;5096010;28;20628;-75
2022/11/28 08:31:31;;;;;;;0.45;0.45;;;3.00;99.90;;;;;;5077647;28;20294;-74
2022/11/28 08:33:59;;;;;;;0.60;0.60;;;3.10;99.90;;;;;;5096028;28;20318;-74
2022/11/28 08:36:24;;;;;;;0.60;0.60;;;3.10;99.90;;;;;;5095701;28;20196;-74
2022/11/28 08:38:50;;;;;;;0.65;0.65;;;3.10;99.90;;;;;;5095739;28;20337;-74
2022/11/28 08:41:19;;;;;;;0.70;0.70;;;3.20;99.90;;;;;;5092022;28;20192;-74
2022/11/28 08:43:45;;;;;;;0.50;0.50;;;3.20;99.90;;;;;;5097916;28;20638;-74
2022/11/28 08:46:19;;;;;;;0.60;0.60;;;3.20;99.90;;;;;;5098179;28;20285;-74
2022/11/28 08:48:46;;;;;;;0.60;0.60;;;3.30;99.90;;;;;;5116049;28;20206;-74
2022/11/28 08:51:16;;;;;;;0.52;0.52;;;3.30;99.90;;;;;;5116178;28;20214;-74
2022/11/28 08:53:43;;;;;;;0.60;0.60;;;3.30;99.90;;;;;;5097433;28;20214;-74
2022/11/28 08:56:09;;;;;;;0.50;0.50;;;3.40;99.90;;;;;;5097764;28;20282;-74
2022/11/28 08:58:35;;;;;;;0.50;0.50;;;3.40;99.90;;;;;;5115805;28;20195;-74
2022/11/28 09:01:01;;;;;;;0.60;0.60;;;3.40;99.90;;;;;;5115639;28;20686;-74
2022/11/28 09:03:27;;;;;;;0.80;0.80;;;3.40;99.90;;;;;;5097617;28;20237;-74
2022/11/28 09:05:52;;;;;;;0.50;0.50;;;3.50;99.90;;;;;;5116124;28;20195;-74
2022/11/28 09:08:20;;;;;;;0.50;0.50;;;3.50;99.90;;;;;;5097750;28;20564;-74
2022/11/28 09:10:46;;;;;;;0.70;0.70;;;3.40;99.90;;;;;;5115505;28;20215;-74
2022/11/28 09:13:13;;;;;;;0.55;0.55;;;3.40;99.90;;;;;;5097500;28;20697;-74
2022/11/28 09:15:41;;;;;;;0.90;0.90;;;3.50;99.90;;;;;;5115370;28;20183;-74
2022/11/28 09:18:07;;;;;;;0.60;0.60;;;3.50;99.90;;;;;;5115543;28;20274;-74
2022/11/28 09:20:33;;;;;;;0.63;0.63;;;3.50;99.90;;;;;;5097047;28;20340;-75
2022/11/28 09:22:59;;;;;;;0.60;0.60;;;3.60;99.90;;;;;;5112560;28;20187;-76
2022/11/28 09:25:25;;;;;;;0.60;0.60;;;3.60;99.90;;;;;;5076532;28;20202;-74
2022/11/28 09:27:50;;;;;;;0.60;0.60;;;3.60;99.90;;;;;;5094150;28;20188;-75
2022/11/28 09:30:17;;;;;;;0.50;0.50;;;3.60;99.90;;;;;;5094881;28;20200;-74
2022/11/28 09:32:46;;;;;;;0.55;0.55;;;3.60;99.90;;;;;;5076446;28;20700;-75
2022/11/28 09:35:12;;;;;;;0.60;0.60;;;3.60;99.90;;;;;;5095077;28;20665;-75
2022/11/28 09:37:37;;;;;;;0.60;0.60;;;3.60;99.90;;;;;;5110054;28;20203;-75
2022/11/28 09:40:04;;;;;;;0.50;0.50;;;3.70;99.90;;;;;;5115034;28;20191;-74
2022/11/28 09:42:37;;;;;;;0.65;0.65;;;3.70;99.90;;;;;;5114778;28;20672;-74
2022/11/28 09:45:13;;;;;;;0.60;0.60;;;3.70;99.90;;;;;;5096642;28;20203;-74
2022/11/28 09:47:41;;;;;;;0.60;0.60;;;3.70;99.90;;;;;;5114802;28;20255;-75
2022/11/28 09:50:19;;;;;;;0.70;0.70;;;3.70;99.90;;;;;;5114996;28;20200;-75
2022/11/28 09:53:07;;;;;;;0.70;0.70;;;3.60;99.90;;;;;;5115157;28;20191;-75
2022/11/28 09:55:40;;;;;;;0.80;0.80;;;3.60;99.90;;;;;;5115011;28;20198;-75
2022/11/28 09:58:21;;;;;;;0.60;0.60;;;3.60;99.90;;;;;;5096524;28;20305;-75
2022/11/28 10:01:09;;;;;;;0.60;0.60;;;3.60;99.90;;;;;;5096748;28;20203;-75
2022/11/28 10:03:39;;;;;;;0.50;0.50;;;3.60;99.90;;;;;;5114562;28;20365;-75
2022/11/28 10:06:14;;;;;;;0.60;0.60;;;3.60;99.90;;;;;;5114942;28;20203;-75
2022/11/28 10:08:51;;;;;;;0.60;0.60;;;3.60;99.90;;;;;;5096428;28;20725;-74
2022/11/28 10:11:26;;;;;;;0.45;0.45;;;3.60;99.90;;;;;;5114114;28;20719;-74
2022/11/28 10:14:16;;;;;;;0.90;0.90;;;3.60;99.90;;;;;;5114558;28;20187;-74
2022/11/28 10:16:57;;;;;;;0.57;0.57;;;3.50;99.90;;;;;;5114015;28;20203;-74
2022/11/28 10:20:03;;;;;;;0.50;0.50;;;3.50;99.90;;;;;;5114193;28;20203;-74
2022/11/28 10:22:35;;;;;;;0.60;0.60;;;3.50;99.90;;;;;;5113328;28;20223;-74
2022/11/28 10:25:07;;;;;;;0.60;0.60;;;3.60;99.90;;;;;;5113976;28;20202;-74
2022/11/28 10:27:34;;;;;;;0.60;0.60;;;3.50;99.90;;;;;;5114293;28;20602;-74
2022/11/28 10:30:22;;;;;;;0.55;0.55;;;3.50;99.90;;;;;;5114018;28;20196;-75
2022/11/28 10:33:07;;;;;;;0.65;0.65;;;3.50;99.90;;;;;;5095390;28;20202;-74
2022/11/28 10:35:56;;;;;;;0.50;0.50;;;3.50;99.90;;;;;;5113852;28;20187;-74
2022/11/28 10:38:26;;;;;;;0.95;0.90;;;3.40;99.90;;;;;;5095238;28;20192;-74
2022/11/28 10:41:27;;;;;;;0.63;0.63;;;3.40;99.90;;;;;;5112932;28;20188;-74
2022/11/28 10:43:58;;;;;;;0.80;0.80;;;3.50;99.90;;;;;;5095635;28;20234;-74
2022/11/28 10:47:01;;;;;;;0.70;0.70;;;3.50;99.90;;;;;;5113466;28;20214;-75
2022/11/28 10:49:59;;;;;;;0.70;0.70;;;3.50;99.90;;;;;;5095055;28;20203;-74
2022/11/28 10:53:00;;;;;;;0.63;0.63;;;3.50;99.90;;;;;;5058110;28;20220;-74
2022/11/28 10:55:56;;;;;;;0.50;0.50;;;3.50;99.90;;;;;;5093538;28;20199;-74
2022/11/28 10:58:25;;;;;;;0.55;0.55;;;3.40;99.90;;;;;;5075172;28;20192;-74
2022/11/28 11:00:56;;;;;;;0.65;0.65;;;3.50;99.90;;;;;;5075271;28;20196;-75
2022/11/28 11:03:28;;;;;;;0.68;0.68;;;3.40;99.90;;;;;;5093829;28;20579;-73
2022/11/28 11:05:54;;;;;;;0.70;0.70;;;3.40;99.90;;;;;;5093397;28;20192;-75
2022/11/28 11:08:23;;;;;;;0.60;0.60;;;3.40;99.90;;;;;;5093625;28;20188;-75
2022/11/28 11:10:51;;;;;;;0.60;0.60;;;3.50;99.90;;;;;;5092876;28;20264;-74
2022/11/28 11:13:22;;;;;;;0.50;0.50;;;3.50;99.90;;;;;;5092980;28;20215;-75
2022/11/28 11:16:16;;;;;;;0.60;0.60;;;3.40;99.90;;;;;;5092765;28;20277;-74
2022/11/28 11:18:41;;;;;;;0.60;0.60;;;3.50;99.90;;;;;;5074303;28;20662;-74
2022/11/28 11:21:23;;;;;;;0.60;0.60;;;3.60;99.90;;;;;;5074730;28;20253;-74
2022/11/28 11:24:17;;;;;;;0.47;0.47;;;3.60;99.90;;;;;;5080608;28;20192;-74
2022/11/28 11:26:45;;;;;;;0.52;0.52;;;3.50;99.90;;;;;;5092510;28;20195;-74
2022/11/28 11:29:34;;;;;;;0.60;0.60;;;3.50;99.90;;;;;;5094864;28;20213;-75
2022/11/28 11:32:04;;;;;;;0.57;0.57;;;3.60;99.90;;;;;;5113209;28;20192;-74
2022/11/28 11:34:51;;;;;;;0.70;0.70;;;3.60;99.90;;;;;;5112848;28;20183;-74
2022/11/28 11:37:36;;;;;;;0.90;0.90;;;3.60;99.90;;;;;;5112940;28;20669;-74
2022/11/28 11:40:24;;;;;;;0.50;0.50;;;3.60;99.90;;;;;;5113096;28;20191;-74
2022/11/28 11:43:00;;;;;;;0.70;0.70;;;3.70;99.90;;;;;;5112075;28;20816;-74
2022/11/28 11:45:33;;;;;;;0.50;0.50;;;3.70;99.90;;;;;;5094534;28;20206;-74
2022/11/28 11:48:00;;;;;;;0.50;0.50;;;3.70;99.90;;;;;;5113054;28;20202;-74
2022/11/28 11:50:29;;;;;;;0.60;0.60;;;3.70;99.90;;;;;;5112484;28;20269;-74
2022/11/28 11:53:10;;;;;;;0.80;0.80;;;3.70;99.90;;;;;;5116990;28;20198;-74
2022/11/28 11:55:47;;;;;;;0.60;0.60;;;3.70;99.90;;;;;;5116843;28;20240;-74
2022/11/28 11:58:22;;;;;;;0.57;0.57;;;3.70;99.90;;;;;;5117000;28;20236;-74
2022/11/28 12:00:50;;;;;;;0.77;0.77;;;3.70;99.90;;;;;;5098695;28;20720;-74
2022/11/28 12:03:21;;;;;;;0.70;0.70;;;3.70;99.90;;;;;;5116952;28;20196;-74
2022/11/28 12:05:54;;;;;;;0.60;0.60;;;3.70;99.90;;;;;;5098860;28;20200;-74
2022/11/28 12:08:34;;;;;;;0.70;0.70;;;3.70;99.90;;;;;;5117135;28;20529;-74
2022/11/28 12:11:17;;;;;;;0.80;0.80;;;3.70;99.90;;;;;;5116830;28;20226;-74
2022/11/28 12:13:43;;;;;;;0.60;0.60;;;3.70;99.90;;;;;;5116798;28;20554;-74
2022/11/28 12:16:41;;;;;;;0.50;0.50;;;3.80;99.90;;;;;;5098505;28;20191;-72
2022/11/28 12:19:15;;;;;;;0.73;0.73;;;3.70;99.90;;;;;;5116738;28;20718;-74
2022/11/28 12:22:17;;;;;;;0.60;0.60;;;3.80;99.90;;;;;;5116306;28;20561;-73
2022/11/28 12:25:02;;;;;;;0.50;0.50;;;3.80;99.90;;;;;;5100530;28;20651;-73
2022/11/28 12:27:58;;;;;;;0.50;0.50;;;3.80;99.90;;;;;;5116028;28;20199;-74
2022/11/28 12:30:51;;;;;;;0.90;0.90;;;3.80;99.90;;;;;;5116385;28;20706;-74
2022/11/28 12:33:47;;;;;;;0.60;0.60;;;3.80;99.90;;;;;;5116366;28;20260;-75
2022/11/28 12:36:33;;;;;;;0.57;0.57;;;3.80;99.90;;;;;;5116290;28;20653;-74
2022/11/28 12:39:30;;;;;;;0.55;0.55;;;3.80;99.90;;;;;;5098047;28;20226;-74
2022/11/28 12:42:10;;;;;;;0.50;0.50;;;3.80;99.90;;;;;;5116502;28;20646;-74
2022/11/28 12:45:03;;;;;;;0.77;0.77;;;3.80;99.90;;;;;;5116099;28;20195;-73
2022/11/28 12:47:41;;;;;;;0.60;0.60;;;3.80;99.90;;;;;;5115917;28;20280;-75
2022/11/28 12:50:32;;;;;;;0.60;0.60;;;3.80;99.90;;;;;;5116255;28;20199;-73
2022/11/28 12:53:24;;;;;;;0.50;0.50;;;3.80;99.90;;;;;;5116075;28;20252;-74
2022/11/28 12:56:02;;;;;;;0.60;0.60;;;3.80;99.90;;;;;;5115965;28;20214;-74
2022/11/28 12:58:47;;;;;;;0.40;0.40;;;3.80;99.90;;;;;;5097429;28;20225;-73
2022/11/28 13:01:19;;;;;;;0.60;0.60;;;3.80;99.90;;;;;;5115928;28;20541;-74
2022/11/28 13:04:09;;;;;;;0.50;0.50;;;3.80;99.90;;;;;;5114666;28;20192;-74
2022/11/28 13:06:47;;;;;;;0.50;0.50;;;3.80;99.90;;;;;;5095443;28;20192;-74
2022/11/28 13:09:31;;;;;;;0.47;0.47;;;3.80;99.90;;;;;;5095369;28;20242;-74
2022/11/28 13:12:21;;;;;;;0.65;0.65;;;3.80;99.90;;;;;;5095446;28;20232;-74
2022/11/28 13:14:53;;;;;;;0.70;0.70;;;3.80;99.90;;;;;;5095225;28;20199;-74
2022/11/28 13:17:22;;;;;;;0.60;0.60;;;3.80;99.90;;;;;;5095213;28;20199;-74
2022/11/28 13:20:06;;;;;;;0.60;0.60;;;3.70;99.90;;;;;;5095064;28;20188;-73
2022/11/28 13:23:10;;;;;;;0.65;0.65;;;3.70;99.90;;;;;;5096662;28;20542;-74
2022/11/28 13:25:46;;;;;;;0.60;0.60;;;3.80;99.90;;;;;;5063083;28;20200;-74
2022/11/28 13:28:27;;;;;;;0.60;0.60;;;3.70;99.90;;;;;;5094984;28;20192;-73